sensor_id;sensor_type;location;lat;lon;timestamp;P1;durP1;ratioP1;P2;durP2;ratioP2
10061;SDS011;5070;52.382;5.270;2023-02-28T00:00:04;3.47;;;3.28;;
10061;SDS011;5070;52.382;5.270;2023-02-28T00:02:36;4.80;;;4.50;;
10061;SDS011;5070;52.382;5.270;2023-02-28T00:05:04;3.53;;;3.33;;
10061;SDS011;5070;52.382;5.270;2023-02-28T00:07:35;8.90;;;8.40;;
10061;SDS011;5070;52.382;5.270;2023-02-28T00:10:04;2.50;;;2.30;;
10061;SDS011;5070;52.382;5.270;2023-02-28T00:12:33;3.67;;;3.47;;
10061;SDS011;5070;52.382;5.270;2023-02-28T00:15:01;2.35;;;2.15;;
10061;SDS011;5070;52.382;5.270;2023-02-28T00:17:32;5.80;;;2.45;;
10061;SDS011;5070;52.382;5.270;2023-02-28T00:20:00;2.67;;;2.47;;
10061;SDS011;5070;52.382;5.270;2023-02-28T00:22:40;3.05;;;2.85;;
10061;SDS011;5070;52.382;5.270;2023-02-28T00:25:10;3.10;;;2.90;;
10061;SDS011;5070;52.382;5.270;2023-02-28T00:27:40;3.42;;;3.22;;
10061;SDS011;5070;52.382;5.270;2023-02-28T00:30:10;2.35;;;2.15;;
10061;SDS011;5070;52.382;5.270;2023-02-28T00:32:39;3.60;;;3.40;;
10061;SDS011;5070;52.382;5.270;2023-02-28T00:35:08;4.43;;;4.13;;
10061;SDS011;5070;52.382;5.270;2023-02-28T00:37:37;3.15;;;2.95;;
10061;SDS011;5070;52.382;5.270;2023-02-28T00:40:07;3.80;;;3.60;;
10061;SDS011;5070;52.382;5.270;2023-02-28T00:42:38;4.00;;;3.80;;
10061;SDS011;5070;52.382;5.270;2023-02-28T00:45:06;3.75;;;3.55;;
10061;SDS011;5070;52.382;5.270;2023-02-28T00:47:37;2.70;;;2.50;;
10061;SDS011;5070;52.382;5.270;2023-02-28T00:50:06;3.50;;;3.30;;
10061;SDS011;5070;52.382;5.270;2023-02-28T00:52:35;4.40;;;4.13;;
10061;SDS011;5070;52.382;5.270;2023-02-28T00:55:04;6.45;;;6.10;;
10061;SDS011;5070;52.382;5.270;2023-02-28T00:57:33;3.13;;;2.92;;
10061;SDS011;5070;52.382;5.270;2023-02-28T01:00:02;4.75;;;4.45;;
10061;SDS011;5070;52.382;5.270;2023-02-28T01:02:31;4.50;;;4.20;;
10061;SDS011;5070;52.382;5.270;2023-02-28T01:04:59;4.13;;;3.88;;
10061;SDS011;5070;52.382;5.270;2023-02-28T01:07:29;4.95;;;4.65;;
10061;SDS011;5070;52.382;5.270;2023-02-28T01:09:57;2.22;;;2.03;;
10061;SDS011;5070;52.382;5.270;2023-02-28T01:12:25;4.13;;;3.90;;
10061;SDS011;5070;52.382;5.270;2023-02-28T01:14:57;4.95;;;4.65;;
10061;SDS011;5070;52.382;5.270;2023-02-28T01:17:25;2.75;;;2.55;;
10061;SDS011;5070;52.382;5.270;2023-02-28T01:19:53;3.58;;;3.35;;
10061;SDS011;5070;52.382;5.270;2023-02-28T01:22:24;2.45;;;2.25;;
10061;SDS011;5070;52.382;5.270;2023-02-28T01:24:52;3.15;;;2.95;;
10061;SDS011;5070;52.382;5.270;2023-02-28T01:27:20;3.30;;;3.10;;
10061;SDS011;5070;52.382;5.270;2023-02-28T01:29:50;3.50;;;3.17;;
10061;SDS011;5070;52.382;5.270;2023-02-28T01:32:19;3.47;;;3.28;;
10061;SDS011;5070;52.382;5.270;2023-02-28T01:34:48;2.92;;;2.72;;
10061;SDS011;5070;52.382;5.270;2023-02-28T01:37:16;2.92;;;2.72;;
10061;SDS011;5070;52.382;5.270;2023-02-28T01:39:44;3.95;;;3.75;;
10061;SDS011;5070;52.382;5.270;2023-02-28T01:42:12;2.92;;;2.72;;
10061;SDS011;5070;52.382;5.270;2023-02-28T01:47:51;4.30;;;4.00;;
10061;SDS011;5070;52.382;5.270;2023-02-28T01:50:23;4.75;;;4.45;;
10061;SDS011;5070;52.382;5.270;2023-02-28T01:52:55;2.95;;;2.75;;
10061;SDS011;5070;52.382;5.270;2023-02-28T01:55:26;5.80;;;5.50;;
10061;SDS011;5070;52.382;5.270;2023-02-28T01:57:58;5.45;;;5.15;;
10061;SDS011;5070;52.382;5.270;2023-02-28T02:00:29;5.75;;;5.45;;
10061;SDS011;5070;52.382;5.270;2023-02-28T02:03:01;4.60;;;4.30;;
10061;SDS011;5070;52.382;5.270;2023-02-28T02:05:35;4.05;;;3.85;;
10061;SDS011;5070;52.382;5.270;2023-02-28T02:08:07;4.93;;;4.63;;
10061;SDS011;5070;52.382;5.270;2023-02-28T02:10:39;6.78;;;6.38;;
10061;SDS011;5070;52.382;5.270;2023-02-28T02:13:16;3.97;;;3.78;;
10061;SDS011;5070;52.382;5.270;2023-02-28T02:15:54;5.28;;;4.97;;
10061;SDS011;5070;52.382;5.270;2023-02-28T02:18:32;4.40;;;4.10;;
10061;SDS011;5070;52.382;5.270;2023-02-28T02:21:26;5.95;;;5.65;;
10061;SDS011;5070;52.382;5.270;2023-02-28T02:27:23;4.07;;;3.85;;
10061;SDS011;5070;52.382;5.270;2023-02-28T02:33:06;3.72;;;3.53;;
10061;SDS011;5070;52.382;5.270;2023-02-28T02:35:51;3.63;;;3.42;;
10061;SDS011;5070;52.382;5.270;2023-02-28T02:38:25;4.28;;;4.03;;
10061;SDS011;5070;52.382;5.270;2023-02-28T02:41:06;4.20;;;3.95;;
10061;SDS011;5070;52.382;5.270;2023-02-28T02:43:40;3.63;;;3.42;;
10061;SDS011;5070;52.382;5.270;2023-02-28T02:46:14;5.15;;;4.85;;
10061;SDS011;5070;52.382;5.270;2023-02-28T02:48:46;4.60;;;4.30;;
10061;SDS011;5070;52.382;5.270;2023-02-28T02:51:17;4.38;;;4.07;;
10061;SDS011;5070;52.382;5.270;2023-02-28T02:53:49;4.63;;;4.32;;
10061;SDS011;5070;52.382;5.270;2023-02-28T02:56:24;6.68;;;6.28;;
10061;SDS011;5070;52.382;5.270;2023-02-28T02:58:55;4.60;;;4.30;;
10061;SDS011;5070;52.382;5.270;2023-02-28T03:01:27;7.95;;;7.55;;
10061;SDS011;5070;52.382;5.270;2023-02-28T03:03:59;3.75;;;3.55;;
10061;SDS011;5070;52.382;5.270;2023-02-28T03:06:31;5.53;;;5.22;;
10061;SDS011;5070;52.382;5.270;2023-02-28T03:08:59;2.50;;;2.30;;
10061;SDS011;5070;52.382;5.270;2023-02-28T03:11:27;3.35;;;3.15;;
10061;SDS011;5070;52.382;5.270;2023-02-28T03:16:53;3.13;;;2.92;;
10061;SDS011;5070;52.382;5.270;2023-02-28T03:22:43;4.43;;;4.13;;
10061;SDS011;5070;52.382;5.270;2023-02-28T03:25:20;4.53;;;4.22;;
10061;SDS011;5070;52.382;5.270;2023-02-28T03:27:54;6.07;;;5.75;;
10061;SDS011;5070;52.382;5.270;2023-02-28T03:30:29;2.85;;;2.65;;
10061;SDS011;5070;52.382;5.270;2023-02-28T03:33:05;3.58;;;3.38;;
10061;SDS011;5070;52.382;5.270;2023-02-28T03:35:36;3.15;;;2.95;;
10061;SDS011;5070;52.382;5.270;2023-02-28T03:38:10;4.60;;;4.30;;
10061;SDS011;5070;52.382;5.270;2023-02-28T03:40:42;2.65;;;2.45;;
10061;SDS011;5070;52.382;5.270;2023-02-28T03:43:17;3.28;;;3.08;;
10061;SDS011;5070;52.382;5.270;2023-02-28T03:45:50;3.50;;;3.30;;
10061;SDS011;5070;52.382;5.270;2023-02-28T03:48:21;5.63;;;5.32;;
10061;SDS011;5070;52.382;5.270;2023-02-28T03:50:54;3.40;;;3.20;;
10061;SDS011;5070;52.382;5.270;2023-02-28T03:53:27;5.32;;;5.03;;
10061;SDS011;5070;52.382;5.270;2023-02-28T03:55:58;3.80;;;3.60;;
10061;SDS011;5070;52.382;5.270;2023-02-28T03:58:31;3.25;;;2.85;;
10061;SDS011;5070;52.382;5.270;2023-02-28T04:01:09;4.05;;;3.83;;
10061;SDS011;5070;52.382;5.270;2023-02-28T04:03:42;3.05;;;2.85;;
10061;SDS011;5070;52.382;5.270;2023-02-28T04:06:13;2.90;;;2.70;;
10061;SDS011;5070;52.382;5.270;2023-02-28T04:08:45;2.70;;;2.50;;
10061;SDS011;5070;52.382;5.270;2023-02-28T04:11:16;3.38;;;3.17;;
10061;SDS011;5070;52.382;5.270;2023-02-28T04:13:50;4.03;;;3.83;;
10061;SDS011;5070;52.382;5.270;2023-02-28T04:16:18;5.22;;;4.93;;
10061;SDS011;5070;52.382;5.270;2023-02-28T04:19:00;2.35;;;2.15;;
10061;SDS011;5070;52.382;5.270;2023-02-28T04:21:30;3.15;;;2.85;;
10061;SDS011;5070;52.382;5.270;2023-02-28T04:24:01;2.20;;;2.00;;
10061;SDS011;5070;52.382;5.270;2023-02-28T04:26:29;2.40;;;2.20;;
10061;SDS011;5070;52.382;5.270;2023-02-28T04:28:57;1.92;;;1.83;;
10061;SDS011;5070;52.382;5.270;2023-02-28T04:31:25;5.60;;;2.90;;
10061;SDS011;5070;52.382;5.270;2023-02-28T04:33:54;2.47;;;2.28;;
10061;SDS011;5070;52.382;5.270;2023-02-28T04:36:22;2.55;;;2.35;;
10061;SDS011;5070;52.382;5.270;2023-02-28T04:38:50;2.65;;;2.45;;
10061;SDS011;5070;52.382;5.270;2023-02-28T04:41:20;2.00;;;1.90;;
10061;SDS011;5070;52.382;5.270;2023-02-28T04:43:49;3.05;;;2.85;;
10061;SDS011;5070;52.382;5.270;2023-02-28T04:46:18;4.20;;;3.95;;
10061;SDS011;5070;52.382;5.270;2023-02-28T04:48:47;3.88;;;1.85;;
10061;SDS011;5070;52.382;5.270;2023-02-28T04:51:15;3.10;;;2.90;;
10061;SDS011;5070;52.382;5.270;2023-02-28T04:53:45;2.58;;;2.38;;
10061;SDS011;5070;52.382;5.270;2023-02-28T04:56:14;2.92;;;2.72;;
10061;SDS011;5070;52.382;5.270;2023-02-28T04:58:44;4.45;;;4.15;;
10061;SDS011;5070;52.382;5.270;2023-02-28T05:01:17;2.28;;;2.08;;
10061;SDS011;5070;52.382;5.270;2023-02-28T05:03:47;3.65;;;3.45;;
10061;SDS011;5070;52.382;5.270;2023-02-28T05:06:15;2.90;;;2.70;;
10061;SDS011;5070;52.382;5.270;2023-02-28T05:08:44;3.47;;;3.28;;
10061;SDS011;5070;52.382;5.270;2023-02-28T05:11:13;2.40;;;2.20;;
10061;SDS011;5070;52.382;5.270;2023-02-28T05:13:45;3.55;;;3.35;;
10061;SDS011;5070;52.382;5.270;2023-02-28T05:16:13;2.78;;;2.58;;
10061;SDS011;5070;52.382;5.270;2023-02-28T05:18:42;2.50;;;2.30;;
10061;SDS011;5070;52.382;5.270;2023-02-28T05:21:24;2.60;;;2.40;;
10061;SDS011;5070;52.382;5.270;2023-02-28T05:23:54;2.85;;;2.65;;
10061;SDS011;5070;52.382;5.270;2023-02-28T05:26:23;4.40;;;4.10;;
10061;SDS011;5070;52.382;5.270;2023-02-28T05:28:53;2.78;;;2.58;;
10061;SDS011;5070;52.382;5.270;2023-02-28T05:31:21;2.67;;;2.47;;
10061;SDS011;5070;52.382;5.270;2023-02-28T05:33:50;2.55;;;2.35;;
10061;SDS011;5070;52.382;5.270;2023-02-28T05:36:18;2.20;;;2.00;;
10061;SDS011;5070;52.382;5.270;2023-02-28T05:38:46;2.40;;;2.20;;
10061;SDS011;5070;52.382;5.270;2023-02-28T05:41:15;3.40;;;3.20;;
10061;SDS011;5070;52.382;5.270;2023-02-28T05:43:48;1.85;;;1.75;;
10061;SDS011;5070;52.382;5.270;2023-02-28T05:46:18;2.58;;;2.38;;
10061;SDS011;5070;52.382;5.270;2023-02-28T05:48:46;3.50;;;3.30;;
10061;SDS011;5070;52.382;5.270;2023-02-28T05:51:15;5.07;;;4.78;;
10061;SDS011;5070;52.382;5.270;2023-02-28T05:53:44;2.42;;;2.22;;
10061;SDS011;5070;52.382;5.270;2023-02-28T05:56:13;3.17;;;2.97;;
10061;SDS011;5070;52.382;5.270;2023-02-28T05:58:41;1.98;;;1.90;;
10061;SDS011;5070;52.382;5.270;2023-02-28T06:01:21;2.85;;;2.65;;
10061;SDS011;5070;52.382;5.270;2023-02-28T06:03:51;5.32;;;5.03;;
10061;SDS011;5070;52.382;5.270;2023-02-28T06:06:19;3.70;;;3.50;;
10061;SDS011;5070;52.382;5.270;2023-02-28T06:08:47;2.40;;;2.20;;
10061;SDS011;5070;52.382;5.270;2023-02-28T06:11:15;3.17;;;2.97;;
10061;SDS011;5070;52.382;5.270;2023-02-28T06:13:43;3.72;;;3.53;;
10061;SDS011;5070;52.382;5.270;2023-02-28T06:16:11;2.85;;;2.65;;
10061;SDS011;5070;52.382;5.270;2023-02-28T06:18:41;2.92;;;2.72;;
10061;SDS011;5070;52.382;5.270;2023-02-28T06:21:09;3.58;;;3.38;;
10061;SDS011;5070;52.382;5.270;2023-02-28T06:23:37;1.90;;;1.88;;
10061;SDS011;5070;52.382;5.270;2023-02-28T06:26:08;2.65;;;2.45;;
10061;SDS011;5070;52.382;5.270;2023-02-28T06:28:38;3.40;;;3.20;;
10061;SDS011;5070;52.382;5.270;2023-02-28T06:31:07;3.35;;;2.75;;
10061;SDS011;5070;52.382;5.270;2023-02-28T06:33:36;2.90;;;2.70;;
10061;SDS011;5070;52.382;5.270;2023-02-28T06:36:07;2.63;;;2.42;;
10061;SDS011;5070;52.382;5.270;2023-02-28T06:38:37;3.15;;;2.95;;
10061;SDS011;5070;52.382;5.270;2023-02-28T06:41:07;3.30;;;3.10;;
10061;SDS011;5070;52.382;5.270;2023-02-28T06:43:37;2.70;;;2.50;;
10061;SDS011;5070;52.382;5.270;2023-02-28T06:46:11;3.72;;;3.53;;
10061;SDS011;5070;52.382;5.270;2023-02-28T06:48:40;3.05;;;2.85;;
10061;SDS011;5070;52.382;5.270;2023-02-28T06:51:15;4.45;;;4.15;;
10061;SDS011;5070;52.382;5.270;2023-02-28T06:53:46;4.55;;;4.03;;
10061;SDS011;5070;52.382;5.270;2023-02-28T06:56:14;4.05;;;3.83;;
10061;SDS011;5070;52.382;5.270;2023-02-28T06:58:45;3.40;;;3.20;;
10061;SDS011;5070;52.382;5.270;2023-02-28T07:01:14;3.50;;;3.30;;
10061;SDS011;5070;52.382;5.270;2023-02-28T07:03:42;3.00;;;2.80;;
10061;SDS011;5070;52.382;5.270;2023-02-28T07:06:11;2.97;;;2.78;;
10061;SDS011;5070;52.382;5.270;2023-02-28T07:08:40;5.53;;;3.10;;
10061;SDS011;5070;52.382;5.270;2023-02-28T07:11:08;4.70;;;4.40;;
10061;SDS011;5070;52.382;5.270;2023-02-28T07:13:36;4.25;;;3.88;;
10061;SDS011;5070;52.382;5.270;2023-02-28T07:16:05;2.97;;;2.78;;
10061;SDS011;5070;52.382;5.270;2023-02-28T07:18:35;2.38;;;2.17;;
10061;SDS011;5070;52.382;5.270;2023-02-28T07:21:04;4.68;;;4.38;;
10061;SDS011;5070;52.382;5.270;2023-02-28T07:23:36;3.10;;;2.90;;
10061;SDS011;5070;52.382;5.270;2023-02-28T07:26:06;3.88;;;3.67;;
10061;SDS011;5070;52.382;5.270;2023-02-28T07:28:39;3.20;;;3.00;;
10061;SDS011;5070;52.382;5.270;2023-02-28T07:31:07;3.20;;;3.00;;
10061;SDS011;5070;52.382;5.270;2023-02-28T07:33:36;3.40;;;2.50;;
10061;SDS011;5070;52.382;5.270;2023-02-28T07:36:05;3.30;;;3.10;;
10061;SDS011;5070;52.382;5.270;2023-02-28T07:38:35;3.67;;;3.47;;
10061;SDS011;5070;52.382;5.270;2023-02-28T07:41:03;2.42;;;2.22;;
10061;SDS011;5070;52.382;5.270;2023-02-28T07:43:33;5.20;;;4.90;;
10061;SDS011;5070;52.382;5.270;2023-02-28T07:46:02;2.75;;;2.55;;
10061;SDS011;5070;52.382;5.270;2023-02-28T07:48:31;2.85;;;2.65;;
10061;SDS011;5070;52.382;5.270;2023-02-28T07:50:59;3.38;;;3.17;;
10061;SDS011;5070;52.382;5.270;2023-02-28T07:53:28;3.05;;;2.85;;
10061;SDS011;5070;52.382;5.270;2023-02-28T07:55:57;2.83;;;2.63;;
10061;SDS011;5070;52.382;5.270;2023-02-28T07:58:25;4.38;;;2.55;;
10061;SDS011;5070;52.382;5.270;2023-02-28T08:00:56;3.38;;;3.17;;
10061;SDS011;5070;52.382;5.270;2023-02-28T08:03:24;4.63;;;3.17;;
10061;SDS011;5070;52.382;5.270;2023-02-28T08:05:52;5.55;;;5.25;;
10061;SDS011;5070;52.382;5.270;2023-02-28T08:08:20;5.75;;;5.45;;
10061;SDS011;5070;52.382;5.270;2023-02-28T08:10:48;5.97;;;5.68;;
10061;SDS011;5070;52.382;5.270;2023-02-28T08:13:16;7.57;;;7.18;;
10061;SDS011;5070;52.382;5.270;2023-02-28T08:15:44;6.55;;;6.15;;
10061;SDS011;5070;52.382;5.270;2023-02-28T08:18:15;6.55;;;6.15;;
10061;SDS011;5070;52.382;5.270;2023-02-28T08:20:42;5.35;;;5.05;;
10061;SDS011;5070;52.382;5.270;2023-02-28T08:23:10;3.22;;;3.03;;
10061;SDS011;5070;52.382;5.270;2023-02-28T08:25:38;5.28;;;4.97;;
10061;SDS011;5070;52.382;5.270;2023-02-28T08:28:06;4.65;;;4.35;;
10061;SDS011;5070;52.382;5.270;2023-02-28T08:30:34;10.48;;;8.65;;
10061;SDS011;5070;52.382;5.270;2023-02-28T08:33:02;3.47;;;3.28;;
10061;SDS011;5070;52.382;5.270;2023-02-28T08:35:32;4.22;;;3.97;;
10061;SDS011;5070;52.382;5.270;2023-02-28T08:38:03;2.67;;;2.58;;
10061;SDS011;5070;52.382;5.270;2023-02-28T08:40:31;3.00;;;2.80;;
10061;SDS011;5070;52.382;5.270;2023-02-28T08:42:59;4.57;;;4.28;;
10061;SDS011;5070;52.382;5.270;2023-02-28T08:45:26;4.88;;;4.57;;
10061;SDS011;5070;52.382;5.270;2023-02-28T08:47:55;2.90;;;2.40;;
10061;SDS011;5070;52.382;5.270;2023-02-28T08:50:23;3.75;;;3.50;;
10061;SDS011;5070;52.382;5.270;2023-02-28T08:52:52;3.38;;;3.17;;
10061;SDS011;5070;52.382;5.270;2023-02-28T08:55:20;4.63;;;4.32;;
10061;SDS011;5070;52.382;5.270;2023-02-28T08:57:48;2.55;;;2.35;;
10061;SDS011;5070;52.382;5.270;2023-02-28T09:00:16;1.80;;;1.70;;
10061;SDS011;5070;52.382;5.270;2023-02-28T09:02:44;2.60;;;2.40;;
10061;SDS011;5070;52.382;5.270;2023-02-28T09:05:12;2.25;;;1.73;;
10061;SDS011;5070;52.382;5.270;2023-02-28T09:07:40;2.88;;;2.33;;
10061;SDS011;5070;52.382;5.270;2023-02-28T09:10:20;2.40;;;2.20;;
10061;SDS011;5070;52.382;5.270;2023-02-28T09:12:47;2.05;;;1.95;;
10061;SDS011;5070;52.382;5.270;2023-02-28T09:15:17;3.17;;;2.97;;
10061;SDS011;5070;52.382;5.270;2023-02-28T09:17:48;1.88;;;1.80;;
10061;SDS011;5070;52.382;5.270;2023-02-28T09:20:16;6.82;;;1.98;;
10061;SDS011;5070;52.382;5.270;2023-02-28T09:22:44;2.50;;;2.30;;
10061;SDS011;5070;52.382;5.270;2023-02-28T09:25:13;3.28;;;2.17;;
10061;SDS011;5070;52.382;5.270;2023-02-28T09:27:41;1.65;;;1.33;;
10061;SDS011;5070;52.382;5.270;2023-02-28T09:30:10;1.75;;;1.25;;
10061;SDS011;5070;52.382;5.270;2023-02-28T09:32:39;2.38;;;2.13;;
10061;SDS011;5070;52.382;5.270;2023-02-28T09:35:07;2.80;;;1.88;;
10061;SDS011;5070;52.382;5.270;2023-02-28T09:37:39;2.67;;;2.08;;
10061;SDS011;5070;52.382;5.270;2023-02-28T09:40:07;4.22;;;1.98;;
10061;SDS011;5070;52.382;5.270;2023-02-28T09:42:38;1.70;;;1.50;;
10061;SDS011;5070;52.382;5.270;2023-02-28T09:45:21;4.90;;;3.20;;
10061;SDS011;5070;52.382;5.270;2023-02-28T09:47:51;4.45;;;3.30;;
10061;SDS011;5070;52.382;5.270;2023-02-28T09:50:28;1.92;;;1.70;;
10061;SDS011;5070;52.382;5.270;2023-02-28T09:53:01;3.00;;;2.88;;
10061;SDS011;5070;52.382;5.270;2023-02-28T09:55:33;5.32;;;2.08;;
10061;SDS011;5070;52.382;5.270;2023-02-28T09:58:15;2.47;;;2.30;;
10061;SDS011;5070;52.382;5.270;2023-02-28T10:00:52;3.35;;;3.15;;
10061;SDS011;5070;52.382;5.270;2023-02-28T10:03:27;2.67;;;1.95;;
10061;SDS011;5070;52.382;5.270;2023-02-28T10:06:02;3.05;;;2.00;;
10061;SDS011;5070;52.382;5.270;2023-02-28T10:08:36;2.50;;;2.17;;
10061;SDS011;5070;52.382;5.270;2023-02-28T10:11:12;2.00;;;1.88;;
10061;SDS011;5070;52.382;5.270;2023-02-28T10:13:48;2.33;;;1.85;;
10061;SDS011;5070;52.382;5.270;2023-02-28T10:16:22;1.80;;;1.30;;
10061;SDS011;5070;52.382;5.270;2023-02-28T10:18:55;2.00;;;1.40;;
10061;SDS011;5070;52.382;5.270;2023-02-28T10:21:27;2.78;;;1.52;;
10061;SDS011;5070;52.382;5.270;2023-02-28T10:24:01;4.25;;;2.33;;
10061;SDS011;5070;52.382;5.270;2023-02-28T10:26:31;2.75;;;1.70;;
10061;SDS011;5070;52.382;5.270;2023-02-28T10:29:02;1.80;;;1.63;;
10061;SDS011;5070;52.382;5.270;2023-02-28T10:31:30;2.15;;;1.38;;
10061;SDS011;5070;52.382;5.270;2023-02-28T10:33:58;1.63;;;1.20;;
10061;SDS011;5070;52.382;5.270;2023-02-28T10:36:26;5.38;;;2.47;;
10061;SDS011;5070;52.382;5.270;2023-02-28T10:38:54;2.08;;;1.52;;
10061;SDS011;5070;52.382;5.270;2023-02-28T10:41:26;8.10;;;1.70;;
10061;SDS011;5070;52.382;5.270;2023-02-28T10:44:15;2.38;;;1.88;;
10061;SDS011;5070;52.382;5.270;2023-02-28T10:46:49;1.70;;;1.40;;
10061;SDS011;5070;52.382;5.270;2023-02-28T10:49:20;2.88;;;1.60;;
10061;SDS011;5070;52.382;5.270;2023-02-28T10:51:50;1.70;;;1.27;;
10061;SDS011;5070;52.382;5.270;2023-02-28T10:54:23;2.58;;;1.88;;
10061;SDS011;5070;52.382;5.270;2023-02-28T10:57:05;1.80;;;1.40;;
10061;SDS011;5070;52.382;5.270;2023-02-28T10:59:43;2.28;;;1.45;;
10061;SDS011;5070;52.382;5.270;2023-02-28T11:05:02;1.80;;;1.55;;
10061;SDS011;5070;52.382;5.270;2023-02-28T11:07:30;1.70;;;1.45;;
10061;SDS011;5070;52.382;5.270;2023-02-28T11:10:16;1.70;;;1.63;;
10061;SDS011;5070;52.382;5.270;2023-02-28T11:12:47;3.25;;;1.70;;
10061;SDS011;5070;52.382;5.270;2023-02-28T11:15:21;1.80;;;1.58;;
10061;SDS011;5070;52.382;5.270;2023-02-28T11:17:55;1.80;;;1.58;;
10061;SDS011;5070;52.382;5.270;2023-02-28T11:20:26;2.10;;;1.88;;
10061;SDS011;5070;52.382;5.270;2023-02-28T11:22:57;1.70;;;1.33;;
10061;SDS011;5070;52.382;5.270;2023-02-28T11:25:28;2.17;;;1.17;;
10061;SDS011;5070;52.382;5.270;2023-02-28T11:27:59;1.52;;;1.00;;
10061;SDS011;5070;52.382;5.270;2023-02-28T11:30:33;1.70;;;1.30;;
10061;SDS011;5070;52.382;5.270;2023-02-28T11:33:18;1.92;;;1.30;;
10061;SDS011;5070;52.382;5.270;2023-02-28T11:35:49;1.60;;;1.13;;
10061;SDS011;5070;52.382;5.270;2023-02-28T11:38:18;1.85;;;1.20;;
10061;SDS011;5070;52.382;5.270;2023-02-28T11:40:47;2.13;;;1.65;;
10061;SDS011;5070;52.382;5.270;2023-02-28T11:43:29;2.00;;;1.63;;
10061;SDS011;5070;52.382;5.270;2023-02-28T11:46:09;1.70;;;1.20;;
10061;SDS011;5070;52.382;5.270;2023-02-28T11:48:52;1.60;;;1.15;;
10061;SDS011;5070;52.382;5.270;2023-02-28T11:51:31;1.70;;;1.30;;
10061;SDS011;5070;52.382;5.270;2023-02-28T11:54:12;1.70;;;1.30;;
10061;SDS011;5070;52.382;5.270;2023-02-28T11:56:51;1.77;;;1.58;;
10061;SDS011;5070;52.382;5.270;2023-02-28T11:59:32;1.70;;;1.40;;
10061;SDS011;5070;52.382;5.270;2023-02-28T12:02:25;6.15;;;2.60;;
10061;SDS011;5070;52.382;5.270;2023-02-28T12:05:02;1.60;;;1.20;;
10061;SDS011;5070;52.382;5.270;2023-02-28T12:07:42;3.03;;;1.70;;
10061;SDS011;5070;52.382;5.270;2023-02-28T12:10:24;3.10;;;1.17;;
10061;SDS011;5070;52.382;5.270;2023-02-28T12:12:57;3.15;;;2.08;;
10061;SDS011;5070;52.382;5.270;2023-02-28T12:15:41;1.75;;;1.55;;
10061;SDS011;5070;52.382;5.270;2023-02-28T12:18:38;2.33;;;1.73;;
10061;SDS011;5070;52.382;5.270;2023-02-28T12:21:18;1.90;;;1.60;;
10061;SDS011;5070;52.382;5.270;2023-02-28T12:23:57;1.90;;;1.73;;
10061;SDS011;5070;52.382;5.270;2023-02-28T12:26:42;1.60;;;1.10;;
10061;SDS011;5070;52.382;5.270;2023-02-28T12:29:13;1.60;;;1.38;;
10061;SDS011;5070;52.382;5.270;2023-02-28T12:31:46;1.95;;;1.45;;
10061;SDS011;5070;52.382;5.270;2023-02-28T12:34:19;1.60;;;1.15;;
10061;SDS011;5070;52.382;5.270;2023-02-28T12:36:50;1.80;;;1.35;;
10061;SDS011;5070;52.382;5.270;2023-02-28T12:39:21;1.77;;;1.70;;
10061;SDS011;5070;52.382;5.270;2023-02-28T12:41:59;1.80;;;1.70;;
10061;SDS011;5070;52.382;5.270;2023-02-28T12:44:32;1.70;;;1.30;;
10061;SDS011;5070;52.382;5.270;2023-02-28T12:47:03;1.80;;;1.70;;
10061;SDS011;5070;52.382;5.270;2023-02-28T12:49:39;1.58;;;1.00;;
10061;SDS011;5070;52.382;5.270;2023-02-28T12:52:13;2.78;;;1.45;;
10061;SDS011;5070;52.382;5.270;2023-02-28T12:54:55;1.65;;;1.17;;
10061;SDS011;5070;52.382;5.270;2023-02-28T12:57:32;3.58;;;1.80;;
10061;SDS011;5070;52.382;5.270;2023-02-28T13:00:04;4.30;;;1.33;;
10061;SDS011;5070;52.382;5.270;2023-02-28T13:09:02;2.00;;;1.60;;
10061;SDS011;5070;52.382;5.270;2023-02-28T13:11:38;1.88;;;1.45;;
10061;SDS011;5070;52.382;5.270;2023-02-28T13:14:16;2.13;;;1.90;;
10061;SDS011;5070;52.382;5.270;2023-02-28T13:17:02;1.80;;;1.33;;
10061;SDS011;5070;52.382;5.270;2023-02-28T13:19:39;1.70;;;1.40;;
10061;SDS011;5070;52.382;5.270;2023-02-28T13:22:17;1.73;;;1.20;;
10061;SDS011;5070;52.382;5.270;2023-02-28T13:24:48;2.88;;;1.80;;
10061;SDS011;5070;52.382;5.270;2023-02-28T13:36:00;2.90;;;2.70;;
10061;SDS011;5070;52.382;5.270;2023-02-28T13:38:40;1.65;;;0.93;;
10061;SDS011;5070;52.382;5.270;2023-02-28T13:44:09;1.50;;;0.90;;
10061;SDS011;5070;52.382;5.270;2023-02-28T13:50:15;3.05;;;1.90;;
10061;SDS011;5070;52.382;5.270;2023-02-28T13:53:00;1.70;;;1.20;;
10061;SDS011;5070;52.382;5.270;2023-02-28T13:55:50;1.60;;;1.20;;
10061;SDS011;5070;52.382;5.270;2023-02-28T13:58:27;1.80;;;1.50;;
10061;SDS011;5070;52.382;5.270;2023-02-28T14:01:16;1.55;;;1.00;;
10061;SDS011;5070;52.382;5.270;2023-02-28T14:04:09;1.60;;;1.10;;
10061;SDS011;5070;52.382;5.270;2023-02-28T14:06:58;2.85;;;2.42;;
10061;SDS011;5070;52.382;5.270;2023-02-28T14:09:28;1.50;;;1.10;;
10061;SDS011;5070;52.382;5.270;2023-02-28T14:12:11;1.50;;;1.00;;
10061;SDS011;5070;52.382;5.270;2023-02-28T14:15:36;1.60;;;1.27;;
10061;SDS011;5070;52.382;5.270;2023-02-28T14:18:16;1.95;;;1.58;;
10061;SDS011;5070;52.382;5.270;2023-02-28T14:20:52;1.60;;;1.00;;
10061;SDS011;5070;52.382;5.270;2023-02-28T14:23:44;4.80;;;1.13;;
10061;SDS011;5070;52.382;5.270;2023-02-28T14:26:51;1.80;;;1.02;;
10061;SDS011;5070;52.382;5.270;2023-02-28T14:29:37;2.17;;;1.52;;
10061;SDS011;5070;52.382;5.270;2023-02-28T14:32:26;1.50;;;1.10;;
10061;SDS011;5070;52.382;5.270;2023-02-28T14:35:02;3.08;;;1.92;;
10061;SDS011;5070;52.382;5.270;2023-02-28T14:37:40;1.60;;;1.10;;
10061;SDS011;5070;52.382;5.270;2023-02-28T14:40:12;2.42;;;1.40;;
10061;SDS011;5070;52.382;5.270;2023-02-28T14:42:46;1.50;;;1.02;;
10061;SDS011;5070;52.382;5.270;2023-02-28T14:45:22;1.60;;;1.00;;
10061;SDS011;5070;52.382;5.270;2023-02-28T14:47:51;1.50;;;0.90;;
10061;SDS011;5070;52.382;5.270;2023-02-28T14:50:20;2.15;;;1.35;;
10061;SDS011;5070;52.382;5.270;2023-02-28T14:52:51;1.60;;;1.10;;
10061;SDS011;5070;52.382;5.270;2023-02-28T14:55:24;1.55;;;1.00;;
10061;SDS011;5070;52.382;5.270;2023-02-28T14:57:55;2.17;;;1.30;;
10061;SDS011;5070;52.382;5.270;2023-02-28T15:00:27;2.10;;;1.73;;
10061;SDS011;5070;52.382;5.270;2023-02-28T15:02:56;1.70;;;1.00;;
10061;SDS011;5070;52.382;5.270;2023-02-28T15:05:26;2.03;;;1.73;;
10061;SDS011;5070;52.382;5.270;2023-02-28T15:08:04;1.60;;;1.15;;
10061;SDS011;5070;52.382;5.270;2023-02-28T15:10:38;1.58;;;0.95;;
10061;SDS011;5070;52.382;5.270;2023-02-28T15:13:10;1.50;;;0.98;;
10061;SDS011;5070;52.382;5.270;2023-02-28T15:15:46;1.90;;;1.58;;
10061;SDS011;5070;52.382;5.270;2023-02-28T15:18:30;1.75;;;0.98;;
10061;SDS011;5070;52.382;5.270;2023-02-28T15:21:03;2.22;;;1.45;;
10061;SDS011;5070;52.382;5.270;2023-02-28T15:23:35;3.95;;;1.25;;
10061;SDS011;5070;52.382;5.270;2023-02-28T15:26:04;1.60;;;1.00;;
10061;SDS011;5070;52.382;5.270;2023-02-28T15:28:33;2.33;;;1.10;;
10061;SDS011;5070;52.382;5.270;2023-02-28T15:31:03;1.40;;;0.80;;
10061;SDS011;5070;52.382;5.270;2023-02-28T15:33:52;1.50;;;1.02;;
10061;SDS011;5070;52.382;5.270;2023-02-28T15:36:23;1.52;;;0.90;;
10061;SDS011;5070;52.382;5.270;2023-02-28T15:38:56;2.80;;;1.10;;
10061;SDS011;5070;52.382;5.270;2023-02-28T15:41:41;1.50;;;0.90;;
10061;SDS011;5070;52.382;5.270;2023-02-28T15:44:16;1.60;;;1.00;;
10061;SDS011;5070;52.382;5.270;2023-02-28T15:46:55;4.68;;;1.60;;
10061;SDS011;5070;52.382;5.270;2023-02-28T15:49:28;2.22;;;1.00;;
10061;SDS011;5070;52.382;5.270;2023-02-28T15:52:10;5.75;;;1.92;;
10061;SDS011;5070;52.382;5.270;2023-02-28T15:54:41;1.63;;;1.20;;
10061;SDS011;5070;52.382;5.270;2023-02-28T15:57:12;1.60;;;1.30;;
10061;SDS011;5070;52.382;5.270;2023-02-28T15:59:44;3.35;;;1.08;;
10061;SDS011;5070;52.382;5.270;2023-02-28T16:02:20;1.70;;;1.30;;
10061;SDS011;5070;52.382;5.270;2023-02-28T16:04:56;7.05;;;2.10;;
10061;SDS011;5070;52.382;5.270;2023-02-28T16:07:25;2.40;;;1.50;;
10061;SDS011;5070;52.382;5.270;2023-02-28T16:09:54;1.80;;;1.45;;
10061;SDS011;5070;52.382;5.270;2023-02-28T16:12:24;1.70;;;0.98;;